Flight Track Log - Related Links

Times and Time Zones

All times are in EDT time to prevent confusion due to time zone crossing. See the FDX1407 flight status page for this flight to view local times or setup timezone preferences in your user account.

Time Position Orientation Groundspeed Altitude Reporting Facility
EDT Latitude Longitude Course Direction KTS MPH feet Rate Location/Type
Sat 05:00:57 AM 35.0667 -90.0000 270° West 216 249 1,100  Level KMEM
Sat 05:01:27 AM 35.0667 -90.0333 270° West 219 252 2,300 3,267 Climbing KMEM
Sat 05:02:27 AM 35.1000 -90.1000 301° West 285 328 6,000 3,789 Climbing KMEM
Sat 05:03:21 AM 35.1667 -90.1000 360° North 290 334 9,500 2,817 Climbing KMEM
Sat 05:05:11 AM 35.3572 -90.1081 358° North 387 445 13,700 2,428 Climbing Kansas City Center
Sat 05:06:14 AM 35.4694 -90.1461 345° North 408 470 16,500 2,678 Climbing Kansas City Center
Sat 05:07:12 AM 35.5906 -90.1778 348° North 429 494 19,100 2,644 Climbing Kansas City Center
Sat 05:08:12 AM 35.7147 -90.2156 346° North 447 514 21,700 2,682 Climbing Kansas City Center
Sat 05:09:24 AM 35.8644 -90.2597 347° North 450 518 25,000 2,364 Climbing Memphis Center
Sat 05:10:24 AM 35.9939 -90.2956 347° North 458 527 26,900 2,000 Climbing Memphis Center
Sat 05:11:24 AM 36.0961 -90.3286 345° North 470 541 29,000 2,550 Climbing Memphis Center
Sat 05:12:24 AM 36.2336 -90.3697 346° North 470 541 32,000 2,550 Climbing Memphis Center
Sat 05:13:24 AM 36.3586 -90.4058 347° North 465 535 34,100 1,950 Climbing Memphis Center
Sat 05:14:24 AM 36.4775 -90.4422 346° North 452 520 35,900 1,750 Climbing Memphis Center
Sat 05:15:24 AM 36.5964 -90.4783 346° North 439 505 37,600 1,050 Climbing Memphis Center
Sat 05:16:24 AM 36.7108 -90.5122 347° North 428 493 38,000 138 Climbing Memphis Center
Sat 05:18:18 AM 36.9394 -90.5750 348° North 427 491 38,000  Level Kansas City Center
Sat 05:19:19 AM 37.0558 -90.6092 347° North 427 491 38,000  Level Kansas City Center
Sat 05:20:16 AM 37.1731 -90.6436 347° North 429 494 38,000  Level Kansas City Center
Sat 05:21:17 AM 37.2886 -90.6781 347° North 427 491 38,000  Level Kansas City Center
Sat 05:22:17 AM 37.3889 -90.7078 347° North 424 488 38,000  Level Kansas City Center
Sat 05:23:18 AM 37.5206 -90.7483 346° North 424 488 38,000  Level Kansas City Center
Sat 05:24:18 AM 37.6181 -90.7775 347° North 423 487 38,000  Level Kansas City Center
Sat 05:25:21 AM 37.7331 -90.8128 346° North 424 488 38,000  Level Kansas City Center
Sat 05:26:19 AM 37.8475 -90.8475 347° North 423 487 38,000  Level Kansas City Center
Sat 05:27:19 AM 37.9619 -90.8833 346° North 423 487 38,000  Level Kansas City Center
Sat 05:28:20 AM 38.0772 -90.9194 346° North 423 487 38,000  Level Kansas City Center
Sat 05:29:21 AM 38.1917 -90.9553 346° North 424 488 38,000  Level Kansas City Center
Sat 05:30:21 AM 38.3061 -90.9903 347° North 422 486 38,000  Level Kansas City Center
Sat 05:31:21 AM 38.4219 -91.0267 346° North 425 489 38,000  Level Kansas City Center
Sat 05:32:22 AM 38.5367 -91.0631 346° North 424 488 38,000  Level Kansas City Center
Sat 05:33:23 AM 38.6517 -91.0989 346° North 423 487 38,000  Level Kansas City Center
Sat 05:34:23 AM 38.7656 -91.1353 346° North 421 484 38,000  Level Kansas City Center
Sat 05:35:22 AM 38.8803 -91.1717 346° North 421 484 38,000  Level Kansas City Center
Sat 05:36:24 AM 38.9936 -91.2078 346° North 420 483 38,000  Level Kansas City Center
Sat 05:37:25 AM 39.1075 -91.2436 346° North 420 483 38,000  Level Kansas City Center
Sat 05:38:23 AM 39.2219 -91.2808 346° North 421 484 38,000  Level Kansas City Center
Sat 05:39:23 AM 39.3364 -91.3156 347° North 422 486 38,000  Level Kansas City Center
Sat 05:40:27 AM 39.4503 -91.3522 346° North 422 486 38,000  Level Kansas City Center
Sat 05:41:24 AM 39.5817 -91.3950 346° North 419 482 38,000  Level Kansas City Center
Sat 05:42:26 AM 39.6933 -91.4314 346° North 417 480 38,000  Level Kansas City Center
Sat 05:43:25 AM 39.8069 -91.4658 347° North 420 483 38,000  Level Kansas City Center
Sat 05:44:25 AM 39.9192 -91.5031 346° North 421 484 38,000  Level Kansas City Center
Sat 05:45:29 AM 40.0311 -91.5411 345° North 421 484 38,000  Level Kansas City Center
Sat 05:46:26 AM 40.1422 -91.5775 346° North 417 480 38,000  Level Kansas City Center
Sat 05:47:29 AM 40.2542 -91.6139 346° North 418 481 38,000  Level Kansas City Center
Sat 05:48:27 AM 40.3650 -91.6503 346° North 418 481 38,000  Level Kansas City Center
Sat 05:49:27 AM 40.4761 -91.6869 346° North 416 479 38,000  Level Kansas City Center
Sat 05:50:28 AM 40.5886 -91.7242 346° North 420 483 38,000  Level Kansas City Center
Sat 05:51:28 AM 40.7000 -91.7614 346° North 420 483 38,000  Level Kansas City Center
Sat 05:52:29 AM 40.8117 -91.7986 346° North 419 482 38,000  Level Kansas City Center
Sat 05:53:29 AM 40.9442 -91.8436 346° North 416 479 38,000  Level Kansas City Center
Sat 05:54:32 AM 41.0553 -91.8808 346° North 416 479 38,000  Level Kansas City Center
Sat 05:55:16 AM 41.1433 -91.9097 346° North 415 478 38,000  Level Minneapolis Center
Sat 05:56:17 AM 41.2544 -91.9478 346° North 415 478 38,000  Level Minneapolis Center
Sat 05:57:17 AM 41.3650 -91.9847 346° North 416 479 38,000  Level Minneapolis Center
Sat 05:58:17 AM 41.4764 -92.0228 346° North 416 479 38,000  Level Minneapolis Center
Sat 05:59:22 AM 41.5883 -92.0628 345° North 418 481 38,000  Level Minneapolis Center
Sat 06:00:23 AM 41.7175 -92.1081 345° North 420 483 38,000  Level Minneapolis Center
Sat 06:01:23 AM 41.8297 -92.1469 346° North 420 483 38,000  Level Minneapolis Center
Sat 06:02:23 AM 41.9433 -92.1864 346° North 422 486 38,000  Level Minneapolis Center
Sat 06:03:24 AM 42.0572 -92.2247 346° North 424 488 38,000  Level Minneapolis Center
Sat 06:04:24 AM 42.1706 -92.2642 346° North 423 487 38,000  Level Minneapolis Center
Sat 06:05:25 AM 42.2850 -92.3036 346° North 424 488 38,000  Level Minneapolis Center
Sat 06:06:25 AM 42.3983 -92.3439 345° North 423 487 38,000 -45 Level Minneapolis Center
Sat 06:07:39 AM 42.5314 -92.4008 342° North 419 482 37,900  Descending Chicago Center
Sat 06:08:40 AM 42.6406 -92.4508 341° North 416 479 38,000 50 Climbing Chicago Center
Sat 06:09:40 AM 42.7511 -92.5036 341° North 419 482 38,000  Level Chicago Center
Sat 06:10:41 AM 42.8619 -92.5553 341° North 420 483 38,000 -992 Level Chicago Center
Sat 06:11:41 AM 42.9700 -92.6086 340° North 416 479 36,000 -2,830 Descending Chicago Center
Sat 06:12:27 AM 43.0581 -92.6533 340° North 420 483 33,000 -3,283 Descending Minneapolis Center
Sat 06:13:27 AM 43.1744 -92.7086 341° North 436 502 30,200 -2,529 Descending Minneapolis Center
Sat 06:14:28 AM 43.2933 -92.7644 341° North 449 517 27,900 -2,231 Descending Minneapolis Center
Sat 06:15:28 AM 43.4064 -92.8197 340° North 441 507 25,700 -2,164 Descending Minneapolis Center
Sat 06:16:30 AM 43.5161 -92.8736 340° North 429 494 23,500 -2,015 Descending Minneapolis Center
Sat 06:17:42 AM 43.6256 -92.9264 341° North 422 486 21,200 -2,436 Descending Minneapolis Center
Sat 06:18:43 AM 43.7731 -92.9986 341° North 410 472 18,100 -2,479 Descending Minneapolis Center
Sat 06:19:43 AM 43.8608 -93.0428 340° North 396 456 16,200 -2,050 Descending Minneapolis Center
Sat 06:20:43 AM 43.9547 -93.1067 334° Northwest 378 435 14,000 -2,132 Descending Minneapolis Center
Sat 06:21:44 AM 44.0531 -93.1481 343° North 373 429 11,900 -1,537 Descending Minneapolis Center
Sat 06:22:44 AM 44.1453 -93.1853 344° North 346 398 10,900 -950 Descending Minneapolis Center
Sat 06:23:44 AM 44.2278 -93.2183 344° North 310 357 10,000 -446 Descending Minneapolis Center
Sat 06:24:45 AM 44.3119 -93.2131 North 305 351 10,000  Level Minneapolis Center
Sat 06:25:45 AM 44.3961 -93.2058 North 305 351 10,000  Level Minneapolis Center
Sat 06:26:46 AM 44.4972 -93.1958 North 303 349 10,000  Level Minneapolis Center
Sat 06:27:46 AM 44.5814 -93.1867 North 304 350 10,000 -650 Level Minneapolis Center
Sat 06:28:46 AM 44.6631 -93.2025 352° North 302 348 8,700 -1,250 Descending Minneapolis Center
Sat 06:29:46 AM 44.7244 -93.2411 336° Northwest 296 341 7,500 -1,488 Descending Minneapolis Center
Sat 06:30:47 AM 44.8053 -93.2900 337° Northwest 296 341 5,700 -1,587 Descending Minneapolis Center
Sat 06:31:47 AM 44.8556 -93.3675 312° West 274 315 4,300 -942 Descending Minneapolis Center
Sat 06:32:48 AM 44.9150 -93.4017 338° Northwest 257 296 3,800 -744 Descending Minneapolis Center
Sat 06:33:48 AM 44.9361 -93.3375 65° Northeast 195 224 2,800 -1,050 Descending Minneapolis Center
Sat 06:34:48 AM 44.9108 -93.2875 126° Southeast 156 180 1,700 -1,100 Descending Minneapolis Center
Sat 06:36:00 AM 44.8820 -93.2218 104° East  Level Estimated
Sat 06:43:00 AM 44.8820 -93.2218 104° East  Level Estimated

Login

Don't have an account? Register now (free) for customized features, flight alerts, and more!